createdAt,value
2023-03-05T00:01:18.324Z,12.38
2023-03-05T00:03:46.430Z,16.52
2023-03-05T00:06:13.879Z,16.33
2023-03-05T00:08:41.166Z,20.90
2023-03-05T00:11:11.105Z,17.55
2023-03-05T00:13:38.862Z,24.58
2023-03-05T00:16:08.768Z,15.63
2023-03-05T00:18:36.922Z,16.02
2023-03-05T00:21:05.457Z,25.33
2023-03-05T00:23:32.792Z,18.42
2023-03-05T00:26:03.711Z,17.75
2023-03-05T00:28:31.403Z,21.90
2023-03-05T00:31:01.237Z,20.85
2023-03-05T00:33:28.906Z,22.42
2023-03-05T00:35:57.188Z,26.05
2023-03-05T00:38:24.681Z,17.23
2023-03-05T00:40:52.196Z,17.77
2023-03-05T00:43:19.982Z,26.80
2023-03-05T00:45:47.322Z,19.95
2023-03-05T00:48:14.625Z,14.25
2023-03-05T00:50:41.903Z,16.75
2023-03-05T00:53:09.201Z,13.48
2023-03-05T00:55:36.521Z,14.05
2023-03-05T00:58:04.000Z,18.40
2023-03-05T01:00:31.417Z,21.30
2023-03-05T01:02:59.135Z,22.45
2023-03-05T01:05:27.253Z,21.80
2023-03-05T01:07:55.578Z,14.98
2023-03-05T01:10:26.615Z,12.10
2023-03-05T01:12:55.707Z,19.95
2023-03-05T01:15:24.464Z,18.17
2023-03-05T01:17:52.166Z,18.88
2023-03-05T01:20:23.223Z,17.52
2023-03-05T01:22:50.787Z,27.23
2023-03-05T01:25:18.793Z,19.58
2023-03-05T01:27:46.398Z,20.00
2023-03-05T01:30:15.008Z,16.45
2023-03-05T01:32:43.261Z,19.52
2023-03-05T01:35:17.636Z,21.48
2023-03-05T01:37:45.134Z,20.92
2023-03-05T01:40:14.741Z,19.05
2023-03-05T01:42:48.230Z,22.73
2023-03-05T01:45:19.072Z,22.33
2023-03-05T01:47:46.863Z,15.98
2023-03-05T01:50:17.415Z,18.27
2023-03-05T01:52:51.793Z,20.77
2023-03-05T01:55:23.560Z,16.58
2023-03-05T01:58:04.986Z,17.45
2023-03-05T02:00:36.897Z,17.08
2023-03-05T02:03:07.332Z,15.63
2023-03-05T02:05:36.932Z,16.90
2023-03-05T02:08:08.106Z,21.10
2023-03-05T02:10:44.160Z,18.83
2023-03-05T02:13:19.606Z,24.45
2023-03-05T02:15:47.720Z,20.13
2023-03-05T02:18:16.330Z,24.08
2023-03-05T02:20:51.632Z,17.95
2023-03-05T02:23:21.115Z,20.33
2023-03-05T02:25:48.736Z,25.30
2023-03-05T02:28:16.152Z,21.75
2023-03-05T02:30:43.485Z,25.00
2023-03-05T02:33:10.770Z,21.23
2023-03-05T02:35:38.210Z,19.80
2023-03-05T02:38:06.088Z,26.20
2023-03-05T02:40:33.408Z,24.05
2023-03-05T02:43:00.748Z,19.77
2023-03-05T02:45:28.853Z,19.13
2023-03-05T02:47:56.063Z,21.70
2023-03-05T02:50:24.679Z,22.55
2023-03-05T02:52:52.029Z,21.92
2023-03-05T02:55:20.909Z,20.15
2023-03-05T02:57:48.166Z,25.10
2023-03-05T03:00:16.060Z,23.20
2023-03-05T03:02:43.425Z,22.10
2023-03-05T03:05:11.074Z,23.50
2023-03-05T03:07:38.442Z,23.45
2023-03-05T03:10:06.634Z,23.10
2023-03-05T03:12:38.704Z,19.08
2023-03-05T03:15:08.000Z,27.70
2023-03-05T03:17:36.840Z,29.33
2023-03-05T03:20:08.033Z,18.63
2023-03-05T03:22:35.504Z,17.85
2023-03-05T03:25:04.011Z,26.15
2023-03-05T03:27:31.284Z,18.00
2023-03-05T03:30:02.594Z,22.25
2023-03-05T03:32:30.225Z,18.33
2023-03-05T03:34:58.108Z,20.23
2023-03-05T03:37:25.575Z,27.88
2023-03-05T03:39:52.863Z,24.67
2023-03-05T03:42:21.558Z,24.48
2023-03-05T03:44:49.475Z,20.77
2023-03-05T03:47:17.269Z,25.90
2023-03-05T03:49:44.503Z,32.28
2023-03-05T03:52:11.837Z,25.50
2023-03-05T03:54:39.103Z,24.00
2023-03-05T03:57:06.515Z,28.13
2023-03-05T03:59:33.862Z,23.15
2023-03-05T04:02:01.236Z,27.27
2023-03-05T04:04:30.269Z,22.30
2023-03-05T04:06:57.750Z,26.55
2023-03-05T04:09:24.974Z,27.00
2023-03-05T04:11:52.223Z,28.05
2023-03-05T04:14:19.549Z,26.02
2023-03-05T04:16:46.811Z,32.60
2023-03-05T04:19:14.092Z,24.92
2023-03-05T04:21:41.640Z,29.63
2023-03-05T04:24:09.219Z,25.15
2023-03-05T04:26:36.570Z,27.98
2023-03-05T04:29:04.075Z,41.08
2023-03-05T04:31:31.360Z,21.20
2023-03-05T04:33:59.757Z,29.20
2023-03-05T04:36:27.079Z,23.58
2023-03-05T04:38:54.316Z,25.92
2023-03-05T04:41:21.610Z,22.35
2023-03-05T04:43:48.900Z,22.50
2023-03-05T04:46:16.233Z,24.13
2023-03-05T04:48:43.896Z,22.00
2023-03-05T04:51:11.119Z,21.17
2023-03-05T04:53:38.368Z,23.83
2023-03-05T04:56:06.056Z,17.67
2023-03-05T04:58:33.293Z,24.65
2023-03-05T05:01:02.422Z,26.60
2023-03-05T05:03:30.210Z,25.40
2023-03-05T05:05:59.237Z,26.33
2023-03-05T05:08:27.455Z,19.98
2023-03-05T05:11:05.833Z,21.50
2023-03-05T05:13:33.938Z,22.17
2023-03-05T05:16:01.465Z,24.73
2023-03-05T05:18:28.725Z,30.30
2023-03-05T05:20:56.115Z,24.25
2023-03-05T05:23:23.433Z,22.38
2023-03-05T05:26:01.365Z,24.48
2023-03-05T05:28:29.198Z,17.25
2023-03-05T05:30:56.500Z,26.13
2023-03-05T05:33:24.629Z,22.38
2023-03-05T05:35:51.992Z,22.15
2023-03-05T05:38:19.390Z,22.55
2023-03-05T05:40:47.089Z,26.77
2023-03-05T05:43:14.420Z,18.17
2023-03-05T05:45:41.809Z,20.73
2023-03-05T05:48:09.128Z,23.50
2023-03-05T05:50:38.169Z,18.70
2023-03-05T05:53:05.546Z,25.55
2023-03-05T05:55:32.886Z,22.60
2023-03-05T05:58:00.266Z,30.08
2023-03-05T06:00:27.574Z,25.45
2023-03-05T06:02:54.955Z,26.42
2023-03-05T06:05:22.367Z,23.52
2023-03-05T06:07:49.613Z,30.63
2023-03-05T06:10:17.511Z,24.58
2023-03-05T06:12:44.740Z,28.98
2023-03-05T06:15:12.311Z,27.73
2023-03-05T06:17:39.672Z,29.27
2023-03-05T06:20:09.777Z,30.27
2023-03-05T06:22:38.356Z,28.55
2023-03-05T06:25:07.515Z,28.20
2023-03-05T06:27:35.776Z,24.05
2023-03-05T06:30:03.571Z,27.13
2023-03-05T06:32:30.906Z,30.80
2023-03-05T06:34:58.634Z,29.27
2023-03-05T06:37:26.229Z,32.70
2023-03-05T06:39:53.864Z,31.02
2023-03-05T06:42:21.105Z,29.42
2023-03-05T06:44:48.503Z,27.17
2023-03-05T06:47:15.908Z,24.17
2023-03-05T06:49:43.602Z,27.90
2023-03-05T06:52:12.738Z,27.20
2023-03-05T06:54:40.402Z,19.02
2023-03-05T06:57:07.660Z,25.48
2023-03-05T06:59:34.914Z,23.60
2023-03-05T07:02:02.235Z,25.25
2023-03-05T07:04:29.961Z,25.95
2023-03-05T07:06:58.392Z,25.63
2023-03-05T07:09:25.648Z,28.23
2023-03-05T07:11:52.899Z,26.38
2023-03-05T07:14:20.191Z,23.63
2023-03-05T07:16:47.550Z,25.85
2023-03-05T07:19:14.902Z,29.27
2023-03-05T07:21:42.183Z,27.50
2023-03-05T07:24:09.561Z,23.45
2023-03-05T07:26:37.506Z,20.20
2023-03-05T07:29:05.098Z,20.15
2023-03-05T07:31:32.517Z,22.55
2023-03-05T07:34:01.764Z,20.77
2023-03-05T07:36:30.145Z,21.45
2023-03-05T07:38:57.484Z,31.73
2023-03-05T07:41:25.014Z,30.33
2023-03-05T07:43:54.524Z,24.48
2023-03-05T07:46:26.856Z,24.27
2023-03-05T07:48:54.907Z,21.73
2023-03-05T07:51:23.571Z,26.83
2023-03-05T07:53:52.697Z,24.13
2023-03-05T07:56:24.652Z,32.15
2023-03-05T07:58:52.648Z,24.15
2023-03-05T08:01:20.517Z,29.83
2023-03-05T08:03:47.757Z,28.77
2023-03-05T08:06:15.272Z,24.83
2023-03-05T08:08:42.654Z,21.30
2023-03-05T08:11:12.725Z,20.60
2023-03-05T08:13:40.624Z,26.17
2023-03-05T08:16:11.287Z,24.25
2023-03-05T08:18:38.641Z,26.27
2023-03-05T08:21:06.850Z,30.65
2023-03-05T08:23:34.582Z,26.77
2023-03-05T08:26:02.289Z,22.50
2023-03-05T08:28:29.505Z,20.20
2023-03-05T08:30:57.283Z,24.17
2023-03-05T08:33:24.421Z,24.83
2023-03-05T08:35:52.099Z,30.70
2023-03-05T08:38:21.111Z,25.50
2023-03-05T08:40:48.453Z,32.53
2023-03-05T08:43:17.827Z,26.45
2023-03-05T08:45:45.236Z,22.25
2023-03-05T08:48:12.482Z,36.35
2023-03-05T08:50:40.208Z,26.35
2023-03-05T08:53:08.446Z,29.25
2023-03-05T08:55:36.608Z,34.47
2023-03-05T08:58:04.098Z,26.50
2023-03-05T09:00:31.810Z,29.50
2023-03-05T09:02:59.475Z,26.88
2023-03-05T09:05:26.741Z,27.10
2023-03-05T09:07:54.158Z,31.45
2023-03-05T09:10:21.600Z,27.45
2023-03-05T09:12:49.318Z,24.42
2023-03-05T09:15:16.571Z,28.80
2023-03-05T09:17:43.873Z,34.25
2023-03-05T09:20:13.583Z,25.48
2023-03-05T09:22:41.325Z,28.90
2023-03-05T09:25:11.496Z,31.52
2023-03-05T09:27:39.560Z,36.17
2023-03-05T09:30:07.927Z,33.47
2023-03-05T09:32:35.337Z,35.30
2023-03-05T09:35:03.356Z,29.13
2023-03-05T09:37:31.065Z,28.50
2023-03-05T09:39:58.740Z,34.47
2023-03-05T09:42:58.048Z,40.22
2023-03-05T09:45:28.410Z,37.35
2023-03-05T09:48:22.833Z,38.08
2023-03-05T09:51:02.825Z,40.85
2023-03-05T09:54:07.875Z,43.30
2023-03-05T09:56:37.886Z,13.63
2023-03-05T09:59:14.083Z,37.13
2023-03-05T10:01:44.716Z,39.20
2023-03-05T10:04:21.137Z,29.52
2023-03-05T10:07:08.902Z,33.85
2023-03-05T10:09:44.924Z,33.65
2023-03-05T10:12:39.116Z,39.53
2023-03-05T10:15:13.173Z,40.22
2023-03-05T10:18:05.637Z,36.80
2023-03-05T10:20:33.348Z,40.97
2023-03-05T10:23:04.229Z,35.10
2023-03-05T10:26:02.780Z,41.90
2023-03-05T10:29:12.879Z,36.15
2023-03-05T10:32:00.586Z,38.65
2023-03-05T10:34:43.437Z,22.95
2023-03-05T10:37:29.330Z,45.53
2023-03-05T10:40:10.970Z,49.03
2023-03-05T10:42:50.219Z,34.60
2023-03-05T10:45:28.130Z,35.88
2023-03-05T10:48:11.549Z,41.17
2023-03-05T10:50:53.544Z,36.20
2023-03-05T10:53:38.268Z,44.03
2023-03-05T10:56:06.671Z,43.33
2023-03-05T10:58:34.024Z,46.08
2023-03-05T11:01:03.790Z,40.38
2023-03-05T11:03:58.225Z,47.67
2023-03-05T11:06:28.687Z,42.65
2023-03-05T11:08:56.470Z,45.08
2023-03-05T11:11:23.892Z,54.72
2023-03-05T11:14:01.089Z,58.72
2023-03-05T11:16:31.906Z,52.75
2023-03-05T11:19:24.465Z,46.40
2023-03-05T11:22:16.681Z,51.25
2023-03-05T11:25:12.483Z,51.58
2023-03-05T11:27:57.668Z,64.22
2023-03-05T11:30:32.100Z,50.70
2023-03-05T11:33:22.478Z,64.75
2023-03-05T11:35:53.233Z,46.17
2023-03-05T11:38:26.275Z,51.50
2023-03-05T11:40:56.514Z,47.88
2023-03-05T11:43:26.178Z,49.65
2023-03-05T11:46:02.503Z,42.78
2023-03-05T11:48:37.167Z,48.00
2023-03-05T11:51:16.184Z,50.75
2023-03-05T11:53:46.451Z,41.08
2023-03-05T11:56:31.640Z,56.67
2023-03-05T11:58:59.343Z,45.13
2023-03-05T12:01:32.409Z,39.08
2023-03-05T12:04:00.967Z,44.38
2023-03-05T12:06:48.606Z,47.65
2023-03-05T12:11:58.375Z,46.35
2023-03-05T12:14:44.798Z,46.53
2023-03-05T12:17:28.731Z,51.78
2023-03-05T12:20:06.178Z,48.67
2023-03-05T12:22:44.590Z,57.90
2023-03-05T12:25:34.912Z,56.05
2023-03-05T12:28:02.544Z,54.50
2023-03-05T12:30:49.770Z,60.33
2023-03-05T12:33:33.789Z,32.72
2023-03-05T12:36:23.114Z,44.78
2023-03-05T12:38:55.109Z,53.78
2023-03-05T12:41:22.368Z,45.35
2023-03-05T12:44:08.636Z,50.60
2023-03-05T12:46:41.695Z,45.17
2023-03-05T12:49:22.822Z,37.75
2023-03-05T12:51:52.512Z,43.05
2023-03-05T12:54:26.834Z,39.08
2023-03-05T12:56:56.925Z,43.00
2023-03-05T12:59:32.967Z,38.75
2023-03-05T13:02:04.624Z,34.63
2023-03-05T13:04:37.024Z,40.72
2023-03-05T13:07:07.524Z,26.55
2023-03-05T13:09:36.506Z,40.78
2023-03-05T13:12:10.050Z,38.22
2023-03-05T13:14:46.986Z,48.03
2023-03-05T13:17:38.099Z,34.55
2023-03-05T13:20:28.509Z,29.45
2023-03-05T13:23:05.881Z,29.40
2023-03-05T13:25:33.578Z,25.27
2023-03-05T13:28:05.450Z,29.33
2023-03-05T13:30:34.622Z,29.48
2023-03-05T13:33:04.021Z,38.85
2023-03-05T13:35:33.058Z,45.72
2023-03-05T13:38:02.085Z,35.60
2023-03-05T13:40:32.243Z,34.65
2023-03-05T13:43:18.249Z,23.83
2023-03-05T13:45:55.042Z,33.35
2023-03-05T13:48:22.587Z,32.38
2023-03-05T13:50:56.632Z,34.30
2023-03-05T13:53:29.400Z,31.40
2023-03-05T13:56:00.540Z,21.90
2023-03-05T13:58:52.728Z,23.40
2023-03-05T14:01:28.226Z,31.05
2023-03-05T14:04:15.829Z,27.63
2023-03-05T14:07:05.855Z,30.58
2023-03-05T14:09:39.350Z,26.90
2023-03-05T14:12:30.312Z,27.02
2023-03-05T14:14:59.768Z,28.23
2023-03-05T14:17:43.487Z,25.02
2023-03-05T14:20:13.588Z,28.42
2023-03-05T14:22:46.255Z,27.10
2023-03-05T14:25:26.316Z,23.27
2023-03-05T14:27:53.680Z,32.00
2023-03-05T14:30:23.532Z,29.60
2023-03-05T14:32:54.080Z,21.27
2023-03-05T14:35:25.668Z,24.10
2023-03-05T14:37:56.797Z,17.45
2023-03-05T14:40:41.997Z,23.50
2023-03-05T14:43:11.183Z,32.70
2023-03-05T14:45:41.019Z,24.45
2023-03-05T14:48:10.475Z,25.83
2023-03-05T14:50:44.143Z,30.17
2023-03-05T14:53:18.624Z,24.60
2023-03-05T14:55:50.258Z,25.88
2023-03-05T14:58:22.751Z,42.72
2023-03-05T15:00:51.345Z,26.30
2023-03-05T15:03:20.410Z,34.28
2023-03-05T15:05:50.487Z,23.75
2023-03-05T15:08:22.499Z,27.45
2023-03-05T15:10:50.477Z,24.63
2023-03-05T15:13:19.049Z,20.13
2023-03-05T15:15:48.408Z,14.07
2023-03-05T15:18:18.908Z,27.17
2023-03-05T15:20:48.873Z,26.38
2023-03-05T15:23:16.262Z,27.02
2023-03-05T15:25:44.109Z,26.75
2023-03-05T15:28:11.881Z,28.00
2023-03-05T15:30:42.135Z,24.13
2023-03-05T15:33:12.212Z,24.17
2023-03-05T15:35:40.401Z,25.98
2023-03-05T15:38:07.705Z,17.08
2023-03-05T15:40:35.077Z,29.45
2023-03-05T15:43:02.758Z,27.63
2023-03-05T15:45:33.789Z,28.23
2023-03-05T15:48:01.460Z,26.08
2023-03-05T15:50:28.812Z,25.90
2023-03-05T15:52:56.575Z,23.80
2023-03-05T15:55:24.066Z,31.48
2023-03-05T15:57:52.287Z,20.65
2023-03-05T16:00:28.569Z,23.58
2023-03-05T16:02:56.064Z,28.95
2023-03-05T16:05:24.084Z,26.77
2023-03-05T16:07:52.536Z,29.52
2023-03-05T16:10:25.175Z,24.80
2023-03-05T16:13:01.824Z,28.70
2023-03-05T16:15:30.853Z,31.48
2023-03-05T16:18:02.745Z,27.73
2023-03-05T16:20:30.065Z,30.77
2023-03-05T16:22:57.369Z,24.13
2023-03-05T16:25:25.152Z,29.70
2023-03-05T16:27:52.382Z,30.38
2023-03-05T16:30:19.988Z,29.80
2023-03-05T16:32:47.544Z,28.58
2023-03-05T16:35:14.958Z,25.40
2023-03-05T16:37:42.667Z,28.90
2023-03-05T16:40:11.803Z,31.50
2023-03-05T16:42:39.197Z,33.47
2023-03-05T16:45:07.410Z,31.17
2023-03-05T16:47:35.273Z,28.40
2023-03-05T16:50:03.106Z,30.80
2023-03-05T16:52:30.298Z,24.83
2023-03-05T16:54:57.573Z,30.85
2023-03-05T16:57:25.665Z,25.33
2023-03-05T16:59:54.113Z,26.55
2023-03-05T17:02:21.766Z,29.70
2023-03-05T17:04:50.385Z,23.52
2023-03-05T17:07:18.630Z,31.27
2023-03-05T17:09:47.956Z,26.92
2023-03-05T17:12:15.603Z,28.40
2023-03-05T17:14:42.828Z,24.55
2023-03-05T17:17:11.689Z,22.45
2023-03-05T17:19:39.521Z,30.00
2023-03-05T17:22:06.901Z,24.65
2023-03-05T17:24:34.454Z,19.45
2023-03-05T17:27:02.120Z,17.60
2023-03-05T17:29:30.590Z,20.02
2023-03-05T17:31:58.287Z,19.55
2023-03-05T17:34:35.865Z,17.45
2023-03-05T17:37:05.295Z,17.27
2023-03-05T17:39:33.129Z,19.30
2023-03-05T17:42:01.090Z,14.23
2023-03-05T17:44:28.395Z,16.45
2023-03-05T17:46:55.676Z,17.42
2023-03-05T17:49:23.440Z,12.68
2023-03-05T17:51:50.805Z,18.25
2023-03-05T17:54:18.058Z,14.77
2023-03-05T17:56:47.957Z,16.95
2023-03-05T17:59:16.394Z,14.55
2023-03-05T18:01:44.135Z,13.63
2023-03-05T18:04:11.806Z,11.25
2023-03-05T18:06:39.372Z,13.38
2023-03-05T18:09:06.923Z,13.13
2023-03-05T18:11:34.256Z,16.33
2023-03-05T18:14:02.298Z,18.48
2023-03-05T18:16:30.051Z,11.68
2023-03-05T18:18:57.244Z,16.02
2023-03-05T18:21:27.665Z,13.25
2023-03-05T18:23:55.416Z,13.38
2023-03-05T18:26:22.596Z,15.45
2023-03-05T18:28:50.253Z,13.55
2023-03-05T18:31:17.438Z,19.05
2023-03-05T18:33:45.053Z,12.00
2023-03-05T18:36:13.881Z,13.75
2023-03-05T18:38:41.535Z,15.95
2023-03-05T18:41:09.355Z,17.77
2023-03-05T18:43:36.852Z,16.88
2023-03-05T18:46:06.034Z,11.57
2023-03-05T18:48:33.320Z,13.48
2023-03-05T18:51:02.080Z,14.20
2023-03-05T18:53:29.997Z,11.57
2023-03-05T18:55:57.194Z,12.35
2023-03-05T18:58:26.032Z,18.02
2023-03-05T19:00:53.705Z,19.35
2023-03-05T19:03:22.983Z,23.50
2023-03-05T19:05:51.193Z,16.38
2023-03-05T19:08:19.396Z,19.92
2023-03-05T19:10:47.583Z,14.95
2023-03-05T19:13:41.009Z,12.82
2023-03-05T19:16:14.573Z,16.02
2023-03-05T19:18:57.257Z,17.52
2023-03-05T19:21:25.005Z,22.80
2023-03-05T19:23:52.444Z,18.38
2023-03-05T19:26:19.938Z,13.88
2023-03-05T19:28:47.231Z,22.08
2023-03-05T19:31:15.733Z,25.23
2023-03-05T19:33:43.509Z,23.17
2023-03-05T19:36:12.465Z,20.85
2023-03-05T19:38:40.692Z,29.27
2023-03-05T19:41:10.254Z,10.10
2023-03-05T19:43:37.907Z,19.92
2023-03-05T19:46:07.444Z,22.15
2023-03-05T19:48:36.036Z,39.08
2023-03-05T19:51:07.501Z,31.08
2023-03-05T19:53:34.936Z,15.95
2023-03-05T19:56:03.515Z,26.40
2023-03-05T19:58:31.226Z,13.55
2023-03-05T20:01:11.570Z,13.35
2023-03-05T20:03:39.018Z,14.57
2023-03-05T20:06:07.428Z,13.65
2023-03-05T20:08:35.344Z,14.93
2023-03-05T20:11:02.860Z,24.63
2023-03-05T20:13:30.893Z,19.33
2023-03-05T20:15:58.578Z,15.75
2023-03-05T20:18:26.182Z,19.13
2023-03-05T20:20:55.092Z,12.75
2023-03-05T20:23:24.427Z,28.33
2023-03-05T20:25:52.302Z,17.92
2023-03-05T20:28:25.664Z,15.95
2023-03-05T20:30:57.805Z,17.02
2023-03-05T20:33:25.772Z,21.02
2023-03-05T20:35:54.342Z,11.10
2023-03-05T20:38:25.971Z,14.32
2023-03-05T20:40:55.823Z,18.95
2023-03-05T20:43:23.508Z,16.20
2023-03-05T20:45:50.788Z,24.08
2023-03-05T20:48:18.123Z,14.77
2023-03-05T20:50:46.816Z,18.65
2023-03-05T20:53:14.560Z,18.00
2023-03-05T20:55:42.246Z,17.20
2023-03-05T20:58:09.966Z,18.75
2023-03-05T21:00:38.230Z,17.23
2023-03-05T21:03:06.023Z,16.55
2023-03-05T21:05:33.858Z,17.02
2023-03-05T21:08:01.781Z,15.40
2023-03-05T21:10:29.112Z,20.27
2023-03-05T21:12:56.620Z,19.10
2023-03-05T21:15:27.298Z,16.25
2023-03-05T21:17:55.087Z,24.33
2023-03-05T21:20:29.415Z,15.90
2023-03-05T21:22:57.808Z,14.40
2023-03-05T21:25:29.472Z,23.67
2023-03-05T21:27:57.998Z,15.73
2023-03-05T21:30:46.540Z,16.75
2023-03-05T21:33:17.193Z,19.88
2023-03-05T21:35:44.930Z,17.73
2023-03-05T21:38:14.103Z,18.15
2023-03-05T21:40:45.549Z,15.68
2023-03-05T21:43:13.823Z,14.52
2023-03-05T21:45:41.821Z,13.20
2023-03-05T21:48:09.600Z,14.57
2023-03-05T21:50:40.362Z,16.80
2023-03-05T21:53:08.333Z,16.45
2023-03-05T21:55:46.508Z,14.30
2023-03-05T21:58:14.528Z,15.27
2023-03-05T22:00:41.790Z,16.27
2023-03-05T22:03:09.081Z,19.33
2023-03-05T22:05:36.786Z,17.55
2023-03-05T22:08:04.576Z,20.52
2023-03-05T22:10:32.241Z,11.90
2023-03-05T22:13:05.878Z,13.68
2023-03-05T22:15:33.962Z,27.90
2023-03-05T22:18:01.230Z,15.00
2023-03-05T22:20:28.508Z,23.02
2023-03-05T22:22:55.796Z,16.15
2023-03-05T22:25:23.180Z,18.35
2023-03-05T22:27:50.459Z,13.73
2023-03-05T22:30:17.927Z,18.45
2023-03-05T22:32:45.180Z,18.15
2023-03-05T22:35:14.717Z,20.55
2023-03-05T22:37:42.814Z,15.95
2023-03-05T22:40:15.309Z,12.73
2023-03-05T22:42:44.200Z,13.75
2023-03-05T22:45:13.086Z,20.52
2023-03-05T22:47:40.393Z,18.15
2023-03-05T22:50:08.642Z,14.32
2023-03-05T22:52:35.934Z,16.80
2023-03-05T22:55:04.579Z,17.55
2023-03-05T22:57:32.886Z,16.45
2023-03-05T23:00:00.336Z,17.25
2023-03-05T23:02:27.833Z,18.17
2023-03-05T23:04:57.765Z,36.40
2023-03-05T23:07:27.993Z,20.95
2023-03-05T23:09:58.124Z,20.58
2023-03-05T23:12:27.458Z,23.67
2023-03-05T23:14:55.184Z,22.13
2023-03-05T23:17:22.854Z,17.55
2023-03-05T23:19:50.401Z,16.02
2023-03-05T23:22:18.006Z,18.20
2023-03-05T23:24:45.594Z,25.02
2023-03-05T23:27:15.549Z,16.23
2023-03-05T23:30:04.478Z,17.33
2023-03-05T23:32:32.282Z,20.52
2023-03-05T23:34:59.946Z,14.50
2023-03-05T23:37:27.549Z,18.73
2023-03-05T23:39:55.077Z,20.73
2023-03-05T23:42:22.381Z,18.65
2023-03-05T23:44:49.611Z,24.83
2023-03-05T23:47:17.246Z,20.50
2023-03-05T23:49:44.464Z,18.85
2023-03-05T23:52:11.729Z,18.88
2023-03-05T23:54:38.960Z,19.90
2023-03-05T23:57:06.323Z,17.52
2023-03-05T23:59:34.707Z,21.88
